Portada
METAR-TAF:

METAR-TAF

Aeroports :

Tbilisi, Geòrgia

latitud: 41-40-09N, longitud: 044-57-17E, altitud: 495 m

Observació

L'informe es va fer fa 27 minuts, a les 20:30 UTC
Vent 17 kt del Nord-Est
Temperatura 23°C
Humitat 61%
Pressió 1017 hPa
Visibilitat 10 km o més
Cel ennuvolat a una alçada de 5400 ft, Cumulonimbus.
tempesta, pluja

METAR: UGTB 242030Z 04017KT 9999 -TSRA BKN054CB 23/15 Q1017 R31L/290055 TEMPO TSRA

Hora: 00:57 (20:57 UTC)

Pronòstic

L'informe es va fer fa 3 hores i 57 minuts, a les 17:00 UTC
Pronòstic vàlid del 24 a les 18 UTC al 25 a les 18 UTC
Vent 16 kt del Nord-Oest
Visibilitat 10 km o més
Núvols disperses a una alçada de 5000 ft, Cumulonimbus.
Temporalment
l' 24 a les 18 UTC al 24 a les 24 UTC
Vent 15 kt amb direcció variable
tempesta, pluja
Evolucionant progressivament
l' 25 a les 04 UTC al 25 a les 07 UTC
Vent 6 kt del Nord-Oest

TAF: UGTB 241700Z 2418/2518 31016KT 9999 SCT050CB TX35/2512Z TN21/2503Z TEMPO 2418/2424 VRB15KT TSRA BECMG 2504/2507 31006KT NSC

Observacions i pronòstics meteorològics de més de 4000 aeroports (METAR i TAF).

Les estacions disponibles són els punts grocs i vermells al mapa.

Posi el ratolí al punt desitjat per veure el nom de l'estació.

Feu clic per veure les observacions i els pronòstics meteorològics.

Per canviar el mapa: feu clic els botons verds amb una creu de color negre per apropar; al botó verd amb un guió per allunyar la imatge; o en les fletxes verdes per a mapes adjacents.


METAR-TAF: